sensor_id;sensor_type;location;lat;lon;timestamp;P1;durP1;ratioP1;P2;durP2;ratioP2
13421;SDS011;6782;55.904;13.396;2023-06-26T00:01:44;8.45;;;7.75;;
13421;SDS011;6782;55.904;13.396;2023-06-26T00:04:33;7.95;;;7.15;;
13421;SDS011;6782;55.904;13.396;2023-06-26T00:07:21;8.50;;;7.70;;
13421;SDS011;6782;55.904;13.396;2023-06-26T00:10:08;8.30;;;7.50;;
13421;SDS011;6782;55.904;13.396;2023-06-26T00:12:55;9.32;;;8.52;;
13421;SDS011;6782;55.904;13.396;2023-06-26T00:15:42;8.45;;;7.80;;
13421;SDS011;6782;55.904;13.396;2023-06-26T00:18:30;7.80;;;7.10;;
13421;SDS011;6782;55.904;13.396;2023-06-26T00:21:19;8.23;;;7.53;;
13421;SDS011;6782;55.904;13.396;2023-06-26T00:24:06;8.20;;;7.47;;
13421;SDS011;6782;55.904;13.396;2023-06-26T00:26:53;8.55;;;7.85;;
13421;SDS011;6782;55.904;13.396;2023-06-26T00:29:41;9.05;;;8.25;;
13421;SDS011;6782;55.904;13.396;2023-06-26T00:32:28;8.73;;;7.93;;
13421;SDS011;6782;55.904;13.396;2023-06-26T00:35:15;8.93;;;8.25;;
13421;SDS011;6782;55.904;13.396;2023-06-26T00:38:04;8.13;;;7.38;;
13421;SDS011;6782;55.904;13.396;2023-06-26T00:40:51;9.00;;;8.10;;
13421;SDS011;6782;55.904;13.396;2023-06-26T00:43:40;8.20;;;7.50;;
13421;SDS011;6782;55.904;13.396;2023-06-26T00:46:27;8.05;;;7.28;;
13421;SDS011;6782;55.904;13.396;2023-06-26T00:49:15;9.25;;;8.30;;
13421;SDS011;6782;55.904;13.396;2023-06-26T00:52:02;8.40;;;7.70;;
13421;SDS011;6782;55.904;13.396;2023-06-26T00:54:51;7.90;;;7.30;;
13421;SDS011;6782;55.904;13.396;2023-06-26T00:57:39;8.15;;;7.53;;
13421;SDS011;6782;55.904;13.396;2023-06-26T01:00:26;8.32;;;7.63;;
13421;SDS011;6782;55.904;13.396;2023-06-26T01:03:14;8.32;;;7.55;;
13421;SDS011;6782;55.904;13.396;2023-06-26T01:06:01;7.93;;;7.32;;
13421;SDS011;6782;55.904;13.396;2023-06-26T01:08:48;7.60;;;7.00;;
13421;SDS011;6782;55.904;13.396;2023-06-26T01:11:38;7.63;;;6.97;;
13421;SDS011;6782;55.904;13.396;2023-06-26T01:14:25;8.07;;;7.40;;
13421;SDS011;6782;55.904;13.396;2023-06-26T01:17:12;8.10;;;7.50;;
13421;SDS011;6782;55.904;13.396;2023-06-26T01:20:01;8.32;;;7.63;;
13421;SDS011;6782;55.904;13.396;2023-06-26T01:22:55;8.75;;;8.05;;
13421;SDS011;6782;55.904;13.396;2023-06-26T01:25:53;9.05;;;8.13;;
13421;SDS011;6782;55.904;13.396;2023-06-26T01:28:51;7.93;;;7.28;;
13421;SDS011;6782;55.904;13.396;2023-06-26T01:31:39;8.98;;;7.38;;
13421;SDS011;6782;55.904;13.396;2023-06-26T01:34:28;7.97;;;7.38;;
13421;SDS011;6782;55.904;13.396;2023-06-26T01:37:16;8.60;;;7.90;;
13421;SDS011;6782;55.904;13.396;2023-06-26T01:40:03;8.75;;;7.95;;
13421;SDS011;6782;55.904;13.396;2023-06-26T01:42:51;8.38;;;7.68;;
13421;SDS011;6782;55.904;13.396;2023-06-26T01:45:41;8.07;;;7.32;;
13421;SDS011;6782;55.904;13.396;2023-06-26T01:48:31;7.90;;;7.18;;
13421;SDS011;6782;55.904;13.396;2023-06-26T01:51:21;7.97;;;7.25;;
13421;SDS011;6782;55.904;13.396;2023-06-26T01:54:17;7.60;;;7.00;;
13421;SDS011;6782;55.904;13.396;2023-06-26T01:57:07;7.60;;;7.00;;
13421;SDS011;6782;55.904;13.396;2023-06-26T01:59:56;7.30;;;6.70;;
13421;SDS011;6782;55.904;13.396;2023-06-26T02:02:46;7.38;;;6.78;;
13421;SDS011;6782;55.904;13.396;2023-06-26T02:05:33;7.80;;;7.20;;
13421;SDS011;6782;55.904;13.396;2023-06-26T02:08:21;7.40;;;6.80;;
13421;SDS011;6782;55.904;13.396;2023-06-26T02:11:08;7.03;;;6.40;;
13421;SDS011;6782;55.904;13.396;2023-06-26T02:13:56;7.55;;;6.95;;
13421;SDS011;6782;55.904;13.396;2023-06-26T02:16:43;7.68;;;6.97;;
13421;SDS011;6782;55.904;13.396;2023-06-26T02:19:31;8.50;;;7.70;;
13421;SDS011;6782;55.904;13.396;2023-06-26T02:22:19;7.68;;;6.97;;
13421;SDS011;6782;55.904;13.396;2023-06-26T02:25:06;8.55;;;7.47;;
13421;SDS011;6782;55.904;13.396;2023-06-26T02:27:54;8.23;;;7.43;;
13421;SDS011;6782;55.904;13.396;2023-06-26T02:30:41;7.90;;;7.30;;
13421;SDS011;6782;55.904;13.396;2023-06-26T02:33:28;6.80;;;6.30;;
13421;SDS011;6782;55.904;13.396;2023-06-26T02:36:17;8.82;;;8.13;;
13421;SDS011;6782;55.904;13.396;2023-06-26T02:39:04;8.40;;;7.80;;
13421;SDS011;6782;55.904;13.396;2023-06-26T02:41:52;8.43;;;7.65;;
13421;SDS011;6782;55.904;13.396;2023-06-26T02:44:39;8.18;;;7.47;;
13421;SDS011;6782;55.904;13.396;2023-06-26T02:47:26;9.60;;;8.80;;
13421;SDS011;6782;55.904;13.396;2023-06-26T02:50:13;10.73;;;9.93;;
13421;SDS011;6782;55.904;13.396;2023-06-26T02:53:02;9.70;;;9.00;;
13421;SDS011;6782;55.904;13.396;2023-06-26T02:55:49;10.25;;;9.45;;
13421;SDS011;6782;55.904;13.396;2023-06-26T02:58:36;9.35;;;8.65;;
13421;SDS011;6782;55.904;13.396;2023-06-26T03:01:23;11.35;;;10.43;;
13421;SDS011;6782;55.904;13.396;2023-06-26T03:04:11;11.85;;;10.85;;
13421;SDS011;6782;55.904;13.396;2023-06-26T03:06:58;11.75;;;10.68;;
13421;SDS011;6782;55.904;13.396;2023-06-26T03:09:46;15.45;;;13.85;;
13421;SDS011;6782;55.904;13.396;2023-06-26T03:12:33;18.45;;;15.05;;
13421;SDS011;6782;55.904;13.396;2023-06-26T03:15:21;33.40;;;16.95;;
13421;SDS011;6782;55.904;13.396;2023-06-26T03:18:08;22.75;;;16.77;;
13421;SDS011;6782;55.904;13.396;2023-06-26T03:20:55;22.25;;;15.43;;
13421;SDS011;6782;55.904;13.396;2023-06-26T03:23:43;18.13;;;15.43;;
13421;SDS011;6782;55.904;13.396;2023-06-26T03:26:32;14.23;;;12.75;;
13421;SDS011;6782;55.904;13.396;2023-06-26T03:29:19;13.15;;;11.80;;
13421;SDS011;6782;55.904;13.396;2023-06-26T03:32:06;12.18;;;10.95;;
13421;SDS011;6782;55.904;13.396;2023-06-26T03:34:54;14.30;;;12.90;;
13421;SDS011;6782;55.904;13.396;2023-06-26T03:37:41;13.30;;;11.98;;
13421;SDS011;6782;55.904;13.396;2023-06-26T03:40:28;13.57;;;12.18;;
13421;SDS011;6782;55.904;13.396;2023-06-26T03:43:17;13.70;;;12.30;;
13421;SDS011;6782;55.904;13.396;2023-06-26T03:46:04;13.98;;;11.20;;
13421;SDS011;6782;55.904;13.396;2023-06-26T03:48:51;12.43;;;11.18;;
13421;SDS011;6782;55.904;13.396;2023-06-26T03:51:39;14.23;;;11.80;;
13421;SDS011;6782;55.904;13.396;2023-06-26T03:54:26;13.05;;;11.75;;
13421;SDS011;6782;55.904;13.396;2023-06-26T03:57:13;14.05;;;11.75;;
13421;SDS011;6782;55.904;13.396;2023-06-26T04:00:02;13.27;;;11.93;;
13421;SDS011;6782;55.904;13.396;2023-06-26T04:02:53;13.77;;;12.18;;
13421;SDS011;6782;55.904;13.396;2023-06-26T04:05:41;14.45;;;12.23;;
13421;SDS011;6782;55.904;13.396;2023-06-26T04:08:28;13.63;;;12.30;;
13421;SDS011;6782;55.904;13.396;2023-06-26T04:11:15;13.82;;;12.50;;
13421;SDS011;6782;55.904;13.396;2023-06-26T04:14:02;13.18;;;11.95;;
13421;SDS011;6782;55.904;13.396;2023-06-26T04:16:50;12.90;;;11.75;;
13421;SDS011;6782;55.904;13.396;2023-06-26T04:19:37;14.00;;;12.60;;
13421;SDS011;6782;55.904;13.396;2023-06-26T04:22:25;12.15;;;10.98;;
13421;SDS011;6782;55.904;13.396;2023-06-26T04:25:12;12.43;;;11.23;;
13421;SDS011;6782;55.904;13.396;2023-06-26T04:27:59;12.45;;;11.25;;
13421;SDS011;6782;55.904;13.396;2023-06-26T04:30:46;12.43;;;11.32;;
13421;SDS011;6782;55.904;13.396;2023-06-26T04:33:35;12.80;;;11.63;;
13421;SDS011;6782;55.904;13.396;2023-06-26T04:36:23;11.90;;;10.80;;
13421;SDS011;6782;55.904;13.396;2023-06-26T04:39:13;12.90;;;11.63;;
13421;SDS011;6782;55.904;13.396;2023-06-26T04:42:01;13.15;;;11.98;;
13421;SDS011;6782;55.904;13.396;2023-06-26T04:44:48;12.75;;;11.55;;
13421;SDS011;6782;55.904;13.396;2023-06-26T04:47:37;12.82;;;11.65;;
13421;SDS011;6782;55.904;13.396;2023-06-26T04:50:26;12.88;;;11.80;;
13421;SDS011;6782;55.904;13.396;2023-06-26T04:53:14;12.95;;;11.85;;
13421;SDS011;6782;55.904;13.396;2023-06-26T04:56:01;12.90;;;11.85;;
13421;SDS011;6782;55.904;13.396;2023-06-26T04:58:48;13.77;;;12.68;;
13421;SDS011;6782;55.904;13.396;2023-06-26T05:01:35;13.32;;;12.10;;
13421;SDS011;6782;55.904;13.396;2023-06-26T05:04:24;13.60;;;12.30;;
13421;SDS011;6782;55.904;13.396;2023-06-26T05:07:13;14.85;;;13.45;;
13421;SDS011;6782;55.904;13.396;2023-06-26T05:10:01;13.98;;;12.48;;
13421;SDS011;6782;55.904;13.396;2023-06-26T05:12:48;14.45;;;13.00;;
13421;SDS011;6782;55.904;13.396;2023-06-26T05:15:35;14.73;;;13.32;;
13421;SDS011;6782;55.904;13.396;2023-06-26T05:18:22;13.90;;;12.57;;
13421;SDS011;6782;55.904;13.396;2023-06-26T05:21:10;13.10;;;12.00;;
13421;SDS011;6782;55.904;13.396;2023-06-26T05:23:59;11.85;;;10.75;;
13421;SDS011;6782;55.904;13.396;2023-06-26T05:26:48;11.10;;;10.10;;
13421;SDS011;6782;55.904;13.396;2023-06-26T05:29:35;11.93;;;10.93;;
13421;SDS011;6782;55.904;13.396;2023-06-26T05:32:23;9.23;;;8.40;;
13421;SDS011;6782;55.904;13.396;2023-06-26T05:35:10;8.80;;;8.00;;
13421;SDS011;6782;55.904;13.396;2023-06-26T05:37:59;8.93;;;7.90;;
13421;SDS011;6782;55.904;13.396;2023-06-26T05:40:48;7.75;;;7.05;;
13421;SDS011;6782;55.904;13.396;2023-06-26T05:43:36;8.65;;;6.60;;
13421;SDS011;6782;55.904;13.396;2023-06-26T05:46:23;5.93;;;5.32;;
13421;SDS011;6782;55.904;13.396;2023-06-26T05:49:10;5.05;;;4.68;;
13421;SDS011;6782;55.904;13.396;2023-06-26T05:51:58;10.73;;;4.72;;
13421;SDS011;6782;55.904;13.396;2023-06-26T05:54:45;5.18;;;4.68;;
13421;SDS011;6782;55.904;13.396;2023-06-26T05:57:35;4.35;;;4.05;;
13421;SDS011;6782;55.904;13.396;2023-06-26T06:00:25;4.53;;;4.22;;
13421;SDS011;6782;55.904;13.396;2023-06-26T06:03:13;4.32;;;3.92;;
13421;SDS011;6782;55.904;13.396;2023-06-26T06:06:00;4.47;;;4.07;;
13421;SDS011;6782;55.904;13.396;2023-06-26T06:08:47;3.95;;;3.65;;
13421;SDS011;6782;55.904;13.396;2023-06-26T06:11:34;3.90;;;3.60;;
13421;SDS011;6782;55.904;13.396;2023-06-26T06:14:24;3.85;;;3.55;;
13421;SDS011;6782;55.904;13.396;2023-06-26T06:17:11;3.50;;;3.20;;
13421;SDS011;6782;55.904;13.396;2023-06-26T06:19:58;4.47;;;3.35;;
13421;SDS011;6782;55.904;13.396;2023-06-26T06:22:45;3.60;;;3.30;;
13421;SDS011;6782;55.904;13.396;2023-06-26T06:25:33;2.80;;;2.60;;
13421;SDS011;6782;55.904;13.396;2023-06-26T06:28:21;2.95;;;2.65;;
13421;SDS011;6782;55.904;13.396;2023-06-26T06:31:10;3.13;;;2.85;;
13421;SDS011;6782;55.904;13.396;2023-06-26T06:33:57;2.70;;;2.50;;
13421;SDS011;6782;55.904;13.396;2023-06-26T06:36:45;2.88;;;2.67;;
13421;SDS011;6782;55.904;13.396;2023-06-26T06:39:32;3.35;;;3.10;;
13421;SDS011;6782;55.904;13.396;2023-06-26T06:42:20;3.67;;;3.38;;
13421;SDS011;6782;55.904;13.396;2023-06-26T06:45:08;3.78;;;3.47;;
13421;SDS011;6782;55.904;13.396;2023-06-26T06:47:57;3.55;;;3.25;;
13421;SDS011;6782;55.904;13.396;2023-06-26T06:50:44;2.90;;;2.65;;
13421;SDS011;6782;55.904;13.396;2023-06-26T06:53:31;2.75;;;2.55;;
13421;SDS011;6782;55.904;13.396;2023-06-26T06:56:18;2.92;;;2.65;;
13421;SDS011;6782;55.904;13.396;2023-06-26T06:59:06;4.20;;;2.88;;
13421;SDS011;6782;55.904;13.396;2023-06-26T07:01:53;3.30;;;2.60;;
13421;SDS011;6782;55.904;13.396;2023-06-26T07:04:42;2.38;;;2.28;;
13421;SDS011;6782;55.904;13.396;2023-06-26T07:07:29;2.85;;;2.65;;
13421;SDS011;6782;55.904;13.396;2023-06-26T07:10:17;2.88;;;2.67;;
13421;SDS011;6782;55.904;13.396;2023-06-26T07:13:05;3.05;;;2.83;;
13421;SDS011;6782;55.904;13.396;2023-06-26T07:15:52;3.50;;;2.92;;
13421;SDS011;6782;55.904;13.396;2023-06-26T07:18:39;4.05;;;3.33;;
13421;SDS011;6782;55.904;13.396;2023-06-26T07:21:28;5.15;;;3.55;;
13421;SDS011;6782;55.904;13.396;2023-06-26T07:24:16;3.35;;;3.15;;
13421;SDS011;6782;55.904;13.396;2023-06-26T07:27:03;3.13;;;2.90;;
13421;SDS011;6782;55.904;13.396;2023-06-26T07:29:51;3.65;;;3.40;;
13421;SDS011;6782;55.904;13.396;2023-06-26T07:32:38;3.88;;;3.47;;
13421;SDS011;6782;55.904;13.396;2023-06-26T07:35:27;3.63;;;3.42;;
13421;SDS011;6782;55.904;13.396;2023-06-26T07:38:16;4.25;;;3.30;;
13421;SDS011;6782;55.904;13.396;2023-06-26T07:41:03;3.55;;;3.22;;
13421;SDS011;6782;55.904;13.396;2023-06-26T07:43:50;3.58;;;3.30;;
13421;SDS011;6782;55.904;13.396;2023-06-26T07:46:37;3.08;;;2.88;;
13421;SDS011;6782;55.904;13.396;2023-06-26T07:49:24;3.15;;;2.95;;
13421;SDS011;6782;55.904;13.396;2023-06-26T07:52:12;3.83;;;3.00;;
13421;SDS011;6782;55.904;13.396;2023-06-26T07:55:02;3.20;;;2.92;;
13421;SDS011;6782;55.904;13.396;2023-06-26T07:57:49;2.83;;;2.63;;
13421;SDS011;6782;55.904;13.396;2023-06-26T08:00:37;3.30;;;3.00;;
13421;SDS011;6782;55.904;13.396;2023-06-26T08:03:25;3.25;;;3.05;;
13421;SDS011;6782;55.904;13.396;2023-06-26T08:06:12;3.15;;;2.85;;
13421;SDS011;6782;55.904;13.396;2023-06-26T08:09:00;2.80;;;2.60;;
13421;SDS011;6782;55.904;13.396;2023-06-26T08:11:51;3.58;;;3.28;;
13421;SDS011;6782;55.904;13.396;2023-06-26T08:14:38;3.42;;;2.97;;
13421;SDS011;6782;55.904;13.396;2023-06-26T08:17:26;3.10;;;2.70;;
13421;SDS011;6782;55.904;13.396;2023-06-26T08:20:13;4.88;;;2.58;;
13421;SDS011;6782;55.904;13.396;2023-06-26T08:23:00;3.17;;;2.50;;
13421;SDS011;6782;55.904;13.396;2023-06-26T08:25:47;3.35;;;3.05;;
13421;SDS011;6782;55.904;13.396;2023-06-26T08:28:35;2.80;;;2.60;;
13421;SDS011;6782;55.904;13.396;2023-06-26T08:31:23;3.45;;;2.90;;
13421;SDS011;6782;55.904;13.396;2023-06-26T08:34:10;3.40;;;2.88;;
13421;SDS011;6782;55.904;13.396;2023-06-26T08:36:58;3.45;;;3.15;;
13421;SDS011;6782;55.904;13.396;2023-06-26T08:39:45;3.30;;;3.10;;
13421;SDS011;6782;55.904;13.396;2023-06-26T08:42:32;2.97;;;2.78;;
13421;SDS011;6782;55.904;13.396;2023-06-26T08:45:21;3.00;;;2.80;;
13421;SDS011;6782;55.904;13.396;2023-06-26T08:48:09;3.85;;;3.08;;
13421;SDS011;6782;55.904;13.396;2023-06-26T08:50:56;3.67;;;3.30;;
13421;SDS011;6782;55.904;13.396;2023-06-26T08:53:48;3.40;;;3.10;;
13421;SDS011;6782;55.904;13.396;2023-06-26T08:56:40;12.93;;;4.13;;
13421;SDS011;6782;55.904;13.396;2023-06-26T08:59:29;4.60;;;3.40;;
13421;SDS011;6782;55.904;13.396;2023-06-26T09:02:19;4.13;;;3.10;;
13421;SDS011;6782;55.904;13.396;2023-06-26T09:05:07;3.63;;;3.33;;
13421;SDS011;6782;55.904;13.396;2023-06-26T09:07:55;4.40;;;3.63;;
13421;SDS011;6782;55.904;13.396;2023-06-26T09:10:42;3.70;;;3.40;;
13421;SDS011;6782;55.904;13.396;2023-06-26T09:13:29;4.00;;;3.67;;
13421;SDS011;6782;55.904;13.396;2023-06-26T09:16:17;3.60;;;3.30;;
13421;SDS011;6782;55.904;13.396;2023-06-26T09:19:06;3.60;;;3.30;;
13421;SDS011;6782;55.904;13.396;2023-06-26T09:21:56;4.00;;;3.67;;
13421;SDS011;6782;55.904;13.396;2023-06-26T09:24:44;4.07;;;3.72;;
13421;SDS011;6782;55.904;13.396;2023-06-26T09:27:31;6.18;;;3.80;;
13421;SDS011;6782;55.904;13.396;2023-06-26T09:30:18;3.63;;;3.33;;
13421;SDS011;6782;55.904;13.396;2023-06-26T09:33:12;4.32;;;3.95;;
13421;SDS011;6782;55.904;13.396;2023-06-26T09:36:02;4.43;;;3.75;;
13421;SDS011;6782;55.904;13.396;2023-06-26T09:38:51;3.50;;;3.20;;
13421;SDS011;6782;55.904;13.396;2023-06-26T09:41:40;4.00;;;3.70;;
13421;SDS011;6782;55.904;13.396;2023-06-26T09:44:28;5.88;;;3.97;;
13421;SDS011;6782;55.904;13.396;2023-06-26T09:47:18;4.28;;;3.88;;
13421;SDS011;6782;55.904;13.396;2023-06-26T09:50:06;4.40;;;4.00;;
13421;SDS011;6782;55.904;13.396;2023-06-26T09:53:10;4.80;;;3.75;;
13421;SDS011;6782;55.904;13.396;2023-06-26T09:55:58;4.13;;;3.83;;
13421;SDS011;6782;55.904;13.396;2023-06-26T09:58:51;4.10;;;3.80;;
13421;SDS011;6782;55.904;13.396;2023-06-26T10:01:39;4.10;;;3.80;;
13421;SDS011;6782;55.904;13.396;2023-06-26T10:04:28;4.05;;;3.70;;
13421;SDS011;6782;55.904;13.396;2023-06-26T10:07:15;4.38;;;3.97;;
13421;SDS011;6782;55.904;13.396;2023-06-26T10:10:07;8.95;;;8.05;;
13421;SDS011;6782;55.904;13.396;2023-06-26T10:12:57;5.78;;;4.15;;
13421;SDS011;6782;55.904;13.396;2023-06-26T10:15:47;4.32;;;4.03;;
13421;SDS011;6782;55.904;13.396;2023-06-26T10:18:36;4.47;;;3.70;;
13421;SDS011;6782;55.904;13.396;2023-06-26T10:21:25;4.30;;;3.90;;
13421;SDS011;6782;55.904;13.396;2023-06-26T10:24:15;13.20;;;4.38;;
13421;SDS011;6782;55.904;13.396;2023-06-26T10:27:07;4.60;;;3.75;;
13421;SDS011;6782;55.904;13.396;2023-06-26T10:29:59;5.05;;;4.00;;
13421;SDS011;6782;55.904;13.396;2023-06-26T10:32:50;5.70;;;3.55;;
13421;SDS011;6782;55.904;13.396;2023-06-26T10:35:43;4.60;;;4.20;;
13421;SDS011;6782;55.904;13.396;2023-06-26T10:38:43;5.57;;;3.88;;
13421;SDS011;6782;55.904;13.396;2023-06-26T10:41:38;4.93;;;3.97;;
13421;SDS011;6782;55.904;13.396;2023-06-26T10:44:29;4.53;;;4.22;;
13421;SDS011;6782;55.904;13.396;2023-06-26T10:47:30;4.97;;;4.20;;
13421;SDS011;6782;55.904;13.396;2023-06-26T10:50:18;4.72;;;4.32;;
13421;SDS011;6782;55.904;13.396;2023-06-26T10:53:07;5.40;;;4.82;;
13421;SDS011;6782;55.904;13.396;2023-06-26T10:55:56;5.38;;;4.88;;
13421;SDS011;6782;55.904;13.396;2023-06-26T10:58:45;5.30;;;4.80;;
13421;SDS011;6782;55.904;13.396;2023-06-26T11:01:41;4.85;;;4.40;;
13421;SDS011;6782;55.904;13.396;2023-06-26T11:04:36;5.38;;;4.90;;
13421;SDS011;6782;55.904;13.396;2023-06-26T11:07:25;6.10;;;4.30;;
13421;SDS011;6782;55.904;13.396;2023-06-26T11:10:13;4.78;;;4.40;;
13421;SDS011;6782;55.904;13.396;2023-06-26T11:13:02;6.07;;;5.07;;
13421;SDS011;6782;55.904;13.396;2023-06-26T11:15:52;5.00;;;4.60;;
13421;SDS011;6782;55.904;13.396;2023-06-26T11:18:43;5.63;;;5.15;;
13421;SDS011;6782;55.904;13.396;2023-06-26T11:21:31;5.07;;;4.68;;
13421;SDS011;6782;55.904;13.396;2023-06-26T11:24:19;5.53;;;5.03;;
13421;SDS011;6782;55.904;13.396;2023-06-26T11:27:06;6.38;;;4.95;;
13421;SDS011;6782;55.904;13.396;2023-06-26T11:29:53;5.30;;;4.90;;
13421;SDS011;6782;55.904;13.396;2023-06-26T11:32:41;5.00;;;4.60;;
13421;SDS011;6782;55.904;13.396;2023-06-26T11:35:30;5.60;;;5.20;;
13421;SDS011;6782;55.904;13.396;2023-06-26T11:38:17;7.05;;;4.85;;
13421;SDS011;6782;55.904;13.396;2023-06-26T11:41:04;5.22;;;4.72;;
13421;SDS011;6782;55.904;13.396;2023-06-26T11:43:53;5.32;;;4.82;;
13421;SDS011;6782;55.904;13.396;2023-06-26T11:46:40;5.45;;;4.95;;
13421;SDS011;6782;55.904;13.396;2023-06-26T11:49:29;5.18;;;4.78;;
13421;SDS011;6782;55.904;13.396;2023-06-26T11:52:17;5.15;;;4.63;;
13421;SDS011;6782;55.904;13.396;2023-06-26T11:55:05;4.85;;;4.45;;
13421;SDS011;6782;55.904;13.396;2023-06-26T11:57:53;4.88;;;4.50;;
13421;SDS011;6782;55.904;13.396;2023-06-26T12:00:41;4.93;;;4.38;;
13421;SDS011;6782;55.904;13.396;2023-06-26T12:03:29;6.07;;;4.97;;
13421;SDS011;6782;55.904;13.396;2023-06-26T12:06:18;5.68;;;5.05;;
13421;SDS011;6782;55.904;13.396;2023-06-26T12:09:07;5.40;;;5.00;;
13421;SDS011;6782;55.904;13.396;2023-06-26T12:11:56;5.60;;;5.05;;
13421;SDS011;6782;55.904;13.396;2023-06-26T12:14:45;5.60;;;5.05;;
13421;SDS011;6782;55.904;13.396;2023-06-26T12:17:32;5.60;;;5.13;;
13421;SDS011;6782;55.904;13.396;2023-06-26T12:20:20;5.50;;;5.00;;
13421;SDS011;6782;55.904;13.396;2023-06-26T12:23:11;5.35;;;4.85;;
13421;SDS011;6782;55.904;13.396;2023-06-26T12:26:15;5.70;;;5.20;;
13421;SDS011;6782;55.904;13.396;2023-06-26T12:29:03;5.47;;;5.07;;
13421;SDS011;6782;55.904;13.396;2023-06-26T12:31:52;5.80;;;5.30;;
13421;SDS011;6782;55.904;13.396;2023-06-26T12:34:39;5.88;;;5.30;;
13421;SDS011;6782;55.904;13.396;2023-06-26T12:37:27;5.80;;;5.20;;
13421;SDS011;6782;55.904;13.396;2023-06-26T12:40:17;5.63;;;5.07;;
13421;SDS011;6782;55.904;13.396;2023-06-26T12:43:12;5.60;;;5.00;;
13421;SDS011;6782;55.904;13.396;2023-06-26T12:46:10;5.20;;;4.72;;
13421;SDS011;6782;55.904;13.396;2023-06-26T12:48:57;5.60;;;5.00;;
13421;SDS011;6782;55.904;13.396;2023-06-26T12:51:44;5.65;;;5.15;;
13421;SDS011;6782;55.904;13.396;2023-06-26T12:54:33;6.10;;;5.13;;
13421;SDS011;6782;55.904;13.396;2023-06-26T12:57:20;5.40;;;4.90;;
13421;SDS011;6782;55.904;13.396;2023-06-26T13:00:10;5.95;;;5.45;;
13421;SDS011;6782;55.904;13.396;2023-06-26T13:02:58;5.82;;;5.30;;
13421;SDS011;6782;55.904;13.396;2023-06-26T13:05:45;6.28;;;4.72;;
13421;SDS011;6782;55.904;13.396;2023-06-26T13:08:33;5.85;;;5.20;;
13421;SDS011;6782;55.904;13.396;2023-06-26T13:11:20;5.90;;;5.40;;
13421;SDS011;6782;55.904;13.396;2023-06-26T13:14:08;6.13;;;5.53;;
13421;SDS011;6782;55.904;13.396;2023-06-26T13:16:56;10.10;;;5.70;;
13421;SDS011;6782;55.904;13.396;2023-06-26T13:19:44;4.22;;;3.75;;
13421;SDS011;6782;55.904;13.396;2023-06-26T13:22:31;4.70;;;3.92;;
13421;SDS011;6782;55.904;13.396;2023-06-26T13:25:18;4.57;;;3.67;;
13421;SDS011;6782;55.904;13.396;2023-06-26T13:28:05;3.95;;;3.47;;
13421;SDS011;6782;55.904;13.396;2023-06-26T13:30:52;6.03;;;3.55;;
13421;SDS011;6782;55.904;13.396;2023-06-26T13:33:41;5.78;;;3.47;;
13421;SDS011;6782;55.904;13.396;2023-06-26T13:36:30;5.25;;;4.20;;
13421;SDS011;6782;55.904;13.396;2023-06-26T13:39:20;3.85;;;3.42;;
13421;SDS011;6782;55.904;13.396;2023-06-26T13:42:07;5.03;;;3.55;;
13421;SDS011;6782;55.904;13.396;2023-06-26T13:44:54;4.80;;;4.25;;
13421;SDS011;6782;55.904;13.396;2023-06-26T13:47:42;5.97;;;5.50;;
13421;SDS011;6782;55.904;13.396;2023-06-26T13:50:31;7.30;;;6.05;;
13421;SDS011;6782;55.904;13.396;2023-06-26T13:53:18;6.47;;;5.88;;
13421;SDS011;6782;55.904;13.396;2023-06-26T13:56:05;6.72;;;6.13;;
13421;SDS011;6782;55.904;13.396;2023-06-26T13:58:53;6.63;;;6.05;;
13421;SDS011;6782;55.904;13.396;2023-06-26T14:01:40;5.88;;;5.38;;
13421;SDS011;6782;55.904;13.396;2023-06-26T14:04:29;6.47;;;5.93;;
13421;SDS011;6782;55.904;13.396;2023-06-26T14:07:17;5.50;;;5.10;;
13421;SDS011;6782;55.904;13.396;2023-06-26T14:10:05;7.10;;;5.60;;
13421;SDS011;6782;55.904;13.396;2023-06-26T14:12:53;6.97;;;5.93;;
13421;SDS011;6782;55.904;13.396;2023-06-26T14:15:40;6.05;;;5.50;;
13421;SDS011;6782;55.904;13.396;2023-06-26T14:18:27;6.20;;;5.70;;
13421;SDS011;6782;55.904;13.396;2023-06-26T14:21:15;6.40;;;5.57;;
13421;SDS011;6782;55.904;13.396;2023-06-26T14:24:04;6.20;;;5.60;;
13421;SDS011;6782;55.904;13.396;2023-06-26T14:26:51;5.88;;;5.38;;
13421;SDS011;6782;55.904;13.396;2023-06-26T14:29:38;5.63;;;5.22;;
13421;SDS011;6782;55.904;13.396;2023-06-26T14:32:26;9.13;;;5.25;;
13421;SDS011;6782;55.904;13.396;2023-06-26T14:35:13;7.57;;;6.10;;
13421;SDS011;6782;55.904;13.396;2023-06-26T14:38:00;8.85;;;5.95;;
13421;SDS011;6782;55.904;13.396;2023-06-26T14:40:51;6.00;;;4.30;;
13421;SDS011;6782;55.904;13.396;2023-06-26T14:43:38;11.70;;;4.68;;
13421;SDS011;6782;55.904;13.396;2023-06-26T14:46:25;4.68;;;4.15;;
13421;SDS011;6782;55.904;13.396;2023-06-26T14:49:12;9.23;;;4.28;;
13421;SDS011;6782;55.904;13.396;2023-06-26T14:52:00;6.05;;;4.35;;
13421;SDS011;6782;55.904;13.396;2023-06-26T14:54:47;10.30;;;6.45;;
13421;SDS011;6782;55.904;13.396;2023-06-26T14:57:36;10.68;;;6.90;;
13421;SDS011;6782;55.904;13.396;2023-06-26T15:00:23;8.10;;;5.70;;
13421;SDS011;6782;55.904;13.396;2023-06-26T15:03:12;9.90;;;5.10;;
13421;SDS011;6782;55.904;13.396;2023-06-26T15:05:59;7.68;;;5.15;;
13421;SDS011;6782;55.904;13.396;2023-06-26T15:08:46;9.48;;;5.00;;
13421;SDS011;6782;55.904;13.396;2023-06-26T15:11:33;9.57;;;4.22;;
13421;SDS011;6782;55.904;13.396;2023-06-26T15:14:22;9.27;;;5.28;;
13421;SDS011;6782;55.904;13.396;2023-06-26T15:17:09;7.43;;;4.95;;
13421;SDS011;6782;55.904;13.396;2023-06-26T15:19:56;9.32;;;7.50;;
13421;SDS011;6782;55.904;13.396;2023-06-26T15:22:44;12.82;;;9.60;;
13421;SDS011;6782;55.904;13.396;2023-06-26T15:25:31;13.13;;;9.95;;
13421;SDS011;6782;55.904;13.396;2023-06-26T15:28:20;11.75;;;7.45;;
13421;SDS011;6782;55.904;13.396;2023-06-26T15:31:09;8.20;;;6.55;;
13421;SDS011;6782;55.904;13.396;2023-06-26T15:33:56;6.15;;;5.15;;
13421;SDS011;6782;55.904;13.396;2023-06-26T15:36:43;7.22;;;5.72;;
13421;SDS011;6782;55.904;13.396;2023-06-26T15:39:30;5.95;;;5.28;;
13421;SDS011;6782;55.904;13.396;2023-06-26T15:42:17;10.57;;;5.80;;
13421;SDS011;6782;55.904;13.396;2023-06-26T15:45:05;6.38;;;5.07;;
13421;SDS011;6782;55.904;13.396;2023-06-26T15:47:54;8.95;;;4.88;;
13421;SDS011;6782;55.904;13.396;2023-06-26T15:50:41;6.45;;;5.07;;
13421;SDS011;6782;55.904;13.396;2023-06-26T15:53:33;6.57;;;4.68;;
13421;SDS011;6782;55.904;13.396;2023-06-26T15:56:22;9.20;;;4.88;;
13421;SDS011;6782;55.904;13.396;2023-06-26T15:59:09;7.38;;;5.10;;
13421;SDS011;6782;55.904;13.396;2023-06-26T16:01:56;4.55;;;3.85;;
13421;SDS011;6782;55.904;13.396;2023-06-26T16:04:45;6.28;;;4.07;;
13421;SDS011;6782;55.904;13.396;2023-06-26T16:07:32;8.05;;;4.82;;
13421;SDS011;6782;55.904;13.396;2023-06-26T16:10:19;5.05;;;4.55;;
13421;SDS011;6782;55.904;13.396;2023-06-26T16:13:06;5.75;;;4.47;;
13421;SDS011;6782;55.904;13.396;2023-06-26T16:15:53;6.72;;;4.43;;
13421;SDS011;6782;55.904;13.396;2023-06-26T16:18:40;5.13;;;4.53;;
13421;SDS011;6782;55.904;13.396;2023-06-26T16:21:28;6.88;;;4.75;;
13421;SDS011;6782;55.904;13.396;2023-06-26T16:24:16;5.35;;;4.35;;
13421;SDS011;6782;55.904;13.396;2023-06-26T16:27:03;4.97;;;4.47;;
13421;SDS011;6782;55.904;13.396;2023-06-26T16:29:51;5.68;;;4.65;;
13421;SDS011;6782;55.904;13.396;2023-06-26T16:32:38;4.97;;;4.22;;
13421;SDS011;6782;55.904;13.396;2023-06-26T16:35:26;4.90;;;4.40;;
13421;SDS011;6782;55.904;13.396;2023-06-26T16:38:17;5.40;;;4.90;;
13421;SDS011;6782;55.904;13.396;2023-06-26T16:41:04;5.63;;;4.93;;
13421;SDS011;6782;55.904;13.396;2023-06-26T16:43:51;6.10;;;5.60;;
13421;SDS011;6782;55.904;13.396;2023-06-26T16:46:38;6.90;;;6.20;;
13421;SDS011;6782;55.904;13.396;2023-06-26T16:49:25;8.30;;;6.10;;